Station History


Daily Summary for March 6, 2012 Units:  English    Metric   Both
« Previous Day
Next Day »
Daily Weekly Monthly Yearly Custom
  High: Low: Average:
Temperature: 58.0 °F 41.6 °F 50.6 °F
Dew Point: 45.1 °F 19.0 °F 34 °F
Humidity: 87% 24% 57%
Wind Speed: 17.3mph 0.0mph 5.7mph
Wind Gust: 17.3mph - -
Wind- - WSW
Pressure: 29.92 in 29.83 in -
Precipitation: 0.00 in    
Historical Graphs
 
 
Tabular Data for March 6, 2012
Time Temperature Dew Point Pressure Wind Wind Speed Wind Gust Humidity Rainfall Rate (Hourly)
00:02 51.2 °F 44.9 °F 29.92 in Calm     79% 0.00 in
00:07 51.0 °F 44.7 °F 29.92 in Calm     79% 0.00 in
00:12 50.8 °F 44.9 °F 29.92 in Calm     80% 0.00 in
00:17 50.8 °F 44.9 °F 29.91 in NE 1.1 mph 1.1 mph 80% 0.00 in
00:22 50.6 °F 44.7 °F 29.91 in Calm     80% 0.00 in
00:27 50.3 °F 44.4 °F 29.91 in Calm     80% 0.00 in
00:32 50.0 °F 44.1 °F 29.91 in Calm     80% 0.00 in
00:37 49.7 °F 43.8 °F 29.90 in Calm     80% 0.00 in
00:42 49.4 °F 43.8 °F 29.90 in Calm     81% 0.00 in
00:47 49.2 °F 43.9 °F 29.90 in Calm     82% 0.00 in
00:52 48.8 °F 43.5 °F 29.90 in Calm     82% 0.00 in
00:57 48.6 °F 43.7 °F 29.90 in Calm     83% 0.00 in
01:02 48.3 °F 43.4 °F 29.90 in Calm     83% 0.00 in
01:07 48.3 °F 43.7 °F 29.90 in Calm     84% 0.00 in
01:12 48.6 °F 43.7 °F 29.90 in Calm     83% 0.00 in
01:17 48.4 °F 43.5 °F 29.90 in Calm     83% 0.00 in
01:22 48.2 °F 43.3 °F 29.89 in Calm     83% 0.00 in
01:27 48.1 °F 43.5 °F 29.89 in Calm     84% 0.00 in
01:32 48.0 °F 43.4 °F 29.89 in Calm     84% 0.00 in
01:37 47.9 °F 43.3 °F 29.89 in Calm     84% 0.00 in
01:42 47.8 °F 43.2 °F 29.89 in Calm     84% 0.00 in
01:47 47.8 °F 43.2 °F 29.89 in Calm     84% 0.00 in
01:52 47.7 °F 42.8 °F 29.89 in Calm     83% 0.00 in
01:57 47.4 °F 42.8 °F 29.89 in Calm     84% 0.00 in
02:02 47.3 °F 42.7 °F 29.89 in Calm     84% 0.00 in
02:07 47.1 °F 42.8 °F 29.88 in Calm     85% 0.00 in
02:12 47.1 °F 42.5 °F 29.88 in Calm     84% 0.00 in
02:17 46.9 °F 42.0 °F 29.88 in Calm     83% 0.00 in
02:22 46.7 °F 42.1 °F 29.88 in Calm     84% 0.00 in
02:27 46.4 °F 41.8 °F 29.87 in Calm     84% 0.00 in
02:32 46.0 °F 41.4 °F 29.87 in Calm     84% 0.00 in
02:38 45.8 °F 41.5 °F 29.86 in Calm     85% 0.00 in
02:42 45.7 °F 41.8 °F 29.86 in Calm     86% 0.00 in
02:48 45.7 °F 41.8 °F 29.86 in Calm     86% 0.00 in
02:53 45.6 °F 41.4 °F 29.86 in Calm     85% 0.00 in
02:58 45.5 °F 41.3 °F 29.86 in Calm     85% 0.00 in
03:09 45.3 °F 41.4 °F 29.85 in Calm     86% 0.00 in
03:23 45.3 °F 41.7 °F 29.85 in Calm     87% 0.00 in
03:28 45.5 °F 41.6 °F 29.85 in Calm     86% 0.00 in
03:33 45.6 °F 41.4 °F 29.85 in Calm     85% 0.00 in
03:39 45.7 °F 41.1 °F 29.85 in Calm     84% 0.00 in
03:44 45.4 °F 40.8 °F 29.85 in Calm     84% 0.00 in
03:49 45.1 °F 40.9 °F 29.85 in Calm     85% 0.00 in
03:54 44.9 °F 41.0 °F 29.85 in Calm     86% 0.00 in
03:59 44.9 °F 41.0 °F 29.85 in NNE 1.1 mph   86% 0.00 in
04:04 45.0 °F 41.1 °F 29.85 in Calm     86% 0.00 in
04:09 45.3 °F 41.7 °F 29.85 in Calm     87% 0.00 in
04:14 45.9 °F 41.9 °F 29.85 in Calm     86% 0.00 in
04:19 46.4 °F 42.1 °F 29.85 in Calm     85% 0.00 in
04:24 46.8 °F 42.2 °F 29.85 in Calm     84% 0.00 in
04:29 46.7 °F 41.8 °F 29.85 in Calm     83% 0.00 in
04:34 46.5 °F 41.6 °F 29.84 in Calm     83% 0.00 in
04:39 46.4 °F 41.8 °F 29.84 in Calm     84% 0.00 in
04:44 46.4 °F 42.1 °F 29.84 in Calm     85% 0.00 in
04:49 46.5 °F 42.2 °F 29.84 in Calm     85% 0.00 in
04:54 46.5 °F 41.9 °F 29.84 in Calm     84% 0.00 in
04:59 46.7 °F 42.1 °F 29.83 in Calm     84% 0.00 in
05:04 47.0 °F 42.4 °F 29.83 in Calm     84% 0.00 in
05:09 47.1 °F 42.5 °F 29.83 in Calm     84% 0.00 in
05:14 47.3 °F 42.4 °F 29.84 in Calm     83% 0.00 in
05:19 47.6 °F 42.7 °F 29.84 in SE 1.0 mph   83% 0.00 in
05:24 47.9 °F 42.7 °F 29.84 in Calm     82% 0.00 in
05:29 48.1 °F 42.5 °F 29.84 in Calm     81% 0.00 in
05:34 48.1 °F 42.5 °F 29.84 in SW 2.3 mph 2.3 mph 81% 0.00 in
05:39 48.0 °F 42.1 °F 29.84 in SSW 1.1 mph 1.1 mph 80% 0.00 in
05:44 47.9 °F 42.3 °F 29.85 in SW 1.1 mph 1.1 mph 81% 0.00 in
05:49 47.7 °F 42.2 °F 29.86 in SSW 1.1 mph 1.1 mph 81% 0.00 in
05:54 47.5 °F 42.0 °F 29.86 in SSW 1.1 mph   81% 0.00 in
05:59 47.4 °F 42.2 °F 29.86 in Calm     82% 0.00 in
06:04 47.2 °F 42.0 °F 29.87 in ENE 2.3 mph 2.3 mph 82% 0.00 in
06:09 47.0 °F 41.8 °F 29.87 in Calm     82% 0.00 in
06:14 46.7 °F 41.5 °F 29.87 in Calm     82% 0.00 in
06:19 46.5 °F 41.3 °F 29.86 in Calm     82% 0.00 in
06:24 46.2 °F 41.3 °F 29.86 in Calm     83% 0.00 in
06:29 45.9 °F 41.0 °F 29.86 in Calm     83% 0.00 in
06:35 45.7 °F 41.1 °F 29.86 in Calm     84% 0.00 in
06:40 45.6 °F 41.0 °F 29.86 in Calm     84% 0.00 in
06:45 45.7 °F 41.1 °F 29.88 in Calm   0.1 mph 84% 0.00 in
06:50 45.7 °F 41.1 °F 29.87 in Calm     84% 0.00 in
06:55 45.5 °F 40.9 °F 29.88 in Calm     84% 0.00 in
07:00 45.2 °F 40.7 °F 29.87 in Calm     84% 0.00 in
07:05 44.9 °F 40.4 °F 29.88 in Calm     84% 0.00 in
07:10 44.8 °F 40.6 °F 29.88 in Calm     85% 0.00 in
07:15 44.8 °F 40.9 °F 29.88 in Calm     86% 0.00 in
07:20 44.9 °F 41.0 °F 29.87 in SW 1.0 mph   86% 0.00 in
07:25 45.1 °F 40.9 °F 29.88 in Calm     85% 0.00 in
07:30 45.4 °F 41.2 °F 29.88 in Calm     85% 0.00 in
07:35 45.8 °F 41.2 °F 29.88 in SW 1.1 mph 1.1 mph 84% 0.00 in
07:40 46.2 °F 41.3 °F 29.89 in SW 1.1 mph   83% 0.00 in
07:45 46.6 °F 41.7 °F 29.89 in Calm     83% 0.00 in
07:46 46.7 °F 41.5 °F 29.89 in Calm     82% 0.00 in
07:51 47.1 °F 41.9 °F 29.90 in Calm     82% 0.00 in
07:56 47.5 °F 42.0 °F 29.89 in Calm     81% 0.00 in
08:01 48.1 °F 41.9 °F 29.90 in Calm     79% 0.00 in
08:06 48.7 °F 41.8 °F 29.90 in Calm     77% 0.00 in
08:11 49.3 °F 42.1 °F 29.90 in NW 2.3 mph 2.3 mph 76% 0.00 in
08:16 50.0 °F 42.4 °F 29.90 in NNW 1.1 mph 1.1 mph 75% 0.00 in
08:21 50.6 °F 42.3 °F 29.90 in NNW 3.5 mph 3.5 mph 73% 0.00 in
08:26 51.1 °F 42.0 °F 29.89 in WNW 3.5 mph 3.5 mph 71% 0.00 in
08:31 51.5 °F 42.4 °F 29.89 in North 3.0 mph 3.0 mph 71% 0.00 in
08:36 51.8 °F 42.3 °F 29.89 in North 3.5 mph 3.5 mph 70% 0.00 in
08:41 52.3 °F 42.8 °F 29.89 in WNW 1.1 mph 1.1 mph 70% 0.00 in
08:46 52.8 °F 42.5 °F 29.88 in SW 3.5 mph 3.5 mph 68% 0.00 in
08:51 53.1 °F 42.8 °F 29.88 in SE 3.5 mph 3.5 mph 68% 0.00 in
08:56 53.3 °F 42.6 °F 29.88 in NNW 3.5 mph 3.5 mph 67% 0.00 in
09:01 53.4 °F 42.7 °F 29.89 in WNW 3.5 mph 3.5 mph 67% 0.00 in
09:06 53.7 °F 42.6 °F 29.90 in West 4.6 mph 4.6 mph 66% 0.00 in
09:11 54.0 °F 42.9 °F 29.89 in WNW 5.8 mph 5.8 mph 66% 0.00 in
09:16 54.1 °F 43.0 °F 29.89 in NW 6.9 mph 6.9 mph 66% 0.00 in
09:21 54.2 °F 43.1 °F 29.89 in NNE 5.8 mph 5.8 mph 66% 0.00 in
09:26 54.3 °F 43.2 °F 29.89 in NE 3.5 mph 3.5 mph 66% 0.00 in
09:32 54.7 °F 43.6 °F 29.90 in NW 5.0 mph 5.0 mph 66% 0.00 in
09:38 54.9 °F 43.7 °F 29.90 in NNW 6.9 mph 6.9 mph 66% 0.00 in
09:43 54.8 °F 43.7 °F 29.90 in NNE 3.5 mph 3.5 mph 66% 0.00 in
09:48 54.6 °F 43.9 °F 29.90 in WNW 4.6 mph 4.6 mph 67% 0.00 in
09:53 54.6 °F 44.2 °F 29.90 in North 4.6 mph 4.6 mph 68% 0.00 in
09:58 54.6 °F 44.2 °F 29.90 in North 6.9 mph 6.9 mph 68% 0.00 in
10:03 54.7 °F 44.3 °F 29.90 in NNW 8.1 mph 8.1 mph 68% 0.00 in
10:08 54.6 °F 44.2 °F 29.90 in North 9.2 mph 9.2 mph 68% 0.00 in
10:13 54.5 °F 44.5 °F 29.90 in West 4.6 mph 4.6 mph 69% 0.00 in
10:18 54.5 °F 44.5 °F 29.90 in NW 4.6 mph 4.6 mph 69% 0.00 in
10:23 54.5 °F 44.5 °F 29.90 in NNE 9.0 mph 9.0 mph 69% 0.00 in
10:28 54.4 °F 44.4 °F 29.90 in NNE 6.9 mph 6.9 mph 69% 0.00 in
10:33 54.2 °F 44.6 °F 29.90 in NNE 3.5 mph 3.5 mph 70% 0.00 in
10:38 54.0 °F 44.4 °F 29.90 in NNE 9.2 mph 9.2 mph 70% 0.00 in
10:43 53.8 °F 44.2 °F 29.90 in NNE 7.0 mph 7.0 mph 70% 0.00 in
10:48 53.5 °F 45.1 °F 29.90 in NNW 5.8 mph 5.8 mph 73% 0.00 in
10:54 53.2 °F 45.1 °F 29.89 in NNW 6.9 mph 6.9 mph 74% 0.00 in
10:59 53.0 °F 44.9 °F 29.89 in NNE 6.9 mph 6.9 mph 74% 0.00 in
11:04 52.9 °F 43.4 °F 29.89 in NNE 6.0 mph 6.0 mph 70% 0.00 in
11:09 52.8 °F 41.7 °F 29.90 in NW 8.1 mph 8.1 mph 66% 0.00 in
11:14 52.8 °F 41.4 °F 29.90 in NW 3.5 mph 3.5 mph 65% 0.00 in
11:19 52.8 °F 40.5 °F 29.90 in NW 4.6 mph 4.6 mph 63% 0.00 in
11:24 52.8 °F 41.0 °F 29.91 in NW 8.1 mph 8.1 mph 64% 0.00 in
11:29 52.6 °F 41.6 °F 29.91 in NNW 10.4 mph 10.4 mph 66% 0.00 in
11:34 52.1 °F 41.1 °F 29.91 in West 6.0 mph 6.0 mph 66% 0.00 in
11:39 52.0 °F 37.2 °F 29.91 in North 6.9 mph 6.9 mph 57% 0.00 in
11:44 52.3 °F 34.7 °F 29.90 in WNW 12.7 mph 12.7 mph 51% 0.00 in
11:49 52.6 °F 35.0 °F 29.90 in West 11.5 mph 11.5 mph 51% 0.00 in
11:54 52.8 °F 34.2 °F 29.90 in NNW 8.1 mph 8.1 mph 49% 0.00 in
11:59 53.1 °F 34.9 °F 29.89 in NW 17.3 mph 17.3 mph 50% 0.00 in
12:04 53.6 °F 36.4 °F 29.89 in NNW 4.0 mph 4.0 mph 52% 0.00 in
12:09 53.9 °F 37.6 °F 29.89 in NW 11.5 mph 11.5 mph 54% 0.00 in
12:14 53.9 °F 37.1 °F 29.89 in NW 9.0 mph 9.0 mph 53% 0.00 in
12:19 54.1 °F 37.3 °F 29.89 in NNE 8.1 mph 8.1 mph 53% 0.00 in
12:24 54.8 °F 37.5 °F 29.89 in NW 6.9 mph 6.9 mph 52% 0.00 in
12:29 56.0 °F 37.1 °F 29.88 in NNW 9.2 mph 9.2 mph 49% 0.00 in
12:34 56.5 °F 36.0 °F 29.88 in NW 10.4 mph 10.4 mph 46% 0.00 in
12:39 56.4 °F 35.3 °F 29.88 in SW 10.4 mph 10.4 mph 45% 0.00 in
12:44 57.0 °F 36.4 °F 29.87 in North 8.1 mph 8.1 mph 46% 0.00 in
12:49 57.4 °F 33.3 °F 29.88 in SSW 8.1 mph 8.1 mph 40% 0.00 in
12:54 57.9 °F 35.5 °F 29.88 in West 9.2 mph 9.2 mph 43% 0.00 in
12:59 57.5 °F 36.9 °F 29.88 in NNW 9.2 mph 9.2 mph 46% 0.00 in
13:04 57.8 °F 36.0 °F 29.87 in North 7.0 mph 7.0 mph 44% 0.00 in
13:09 57.3 °F 32.5 °F 29.87 in NNE 9.2 mph 9.2 mph 39% 0.00 in
13:14 56.9 °F 34.0 °F 29.87 in North 9.2 mph 9.2 mph 42% 0.00 in
13:19 57.2 °F 34.3 °F 29.87 in NW 8.0 mph 8.0 mph 42% 0.00 in
13:24 57.2 °F 31.1 °F 29.87 in NW 9.0 mph 9.0 mph 37% 0.00 in
13:29 57.4 °F 32.0 °F 29.86 in NNE 13.8 mph 13.8 mph 38% 0.00 in
13:34 57.6 °F 32.2 °F 29.86 in NNW 11.5 mph 11.5 mph 38% 0.00 in
13:39 57.6 °F 31.5 °F 29.86 in NW 6.9 mph 6.9 mph 37% 0.00 in
13:44 57.7 °F 31.6 °F 29.86 in NNE 9.2 mph 9.2 mph 37% 0.00 in
13:49 57.5 °F 30.7 °F 29.85 in NW 10.4 mph 10.4 mph 36% 0.00 in
13:54 57.2 °F 31.1 °F 29.85 in NNE 11.5 mph 11.5 mph 37% 0.00 in
13:59 56.8 °F 31.4 °F 29.85 in NW 6.0 mph 6.0 mph 38% 0.00 in
14:04 56.6 °F 31.9 °F 29.85 in NNE 12.7 mph 12.7 mph 39% 0.00 in
14:09 56.9 °F 32.8 °F 29.86 in NE 5.8 mph 5.8 mph 40% 0.00 in
14:14 57.3 °F 31.9 °F 29.85 in North 11.5 mph 11.5 mph 38% 0.00 in
14:20 56.9 °F 30.9 °F 29.85 in ENE 6.9 mph 6.9 mph 37% 0.00 in
14:25 57.3 °F 30.5 °F 29.85 in West 11.5 mph 11.5 mph 36% 0.00 in
14:30 57.2 °F 29.8 °F 29.85 in South 12.7 mph 12.7 mph 35% 0.00 in
14:35 56.8 °F 29.4 °F 29.85 in WNW 5.8 mph 5.8 mph 35% 0.00 in
14:40 56.8 °F 27.2 °F 29.85 in SW 11.5 mph 11.5 mph 32% 0.00 in
14:45 56.7 °F 26.4 °F 29.85 in WNW 8.1 mph 8.1 mph 31% 0.00 in
14:50 57.3 °F 26.1 °F 29.85 in North 9.2 mph 9.2 mph 30% 0.00 in
14:55 58.0 °F 26.7 °F 29.84 in West 6.9 mph 6.9 mph 30% 0.00 in
15:00 58.0 °F 24.2 °F 29.84 in North 10.4 mph 10.4 mph 27% 0.00 in
15:05 57.5 °F 24.6 °F 29.85 in NNW 9.2 mph 9.2 mph 28% 0.00 in
15:10 57.3 °F 24.4 °F 29.84 in WNW 6.9 mph 6.9 mph 28% 0.00 in
15:15 57.2 °F 23.5 °F 29.84 in NNW 12.7 mph 12.7 mph 27% 0.00 in
15:20 57.4 °F 24.5 °F 29.84 in NE 7.0 mph 7.0 mph 28% 0.00 in
15:25 57.8 °F 24.0 °F 29.84 in West 10.4 mph 10.4 mph 27% 0.00 in
15:30 57.1 °F 24.3 °F 29.84 in NNW 10.4 mph 10.4 mph 28% 0.00 in
15:35 56.6 °F 22.1 °F 29.84 in SSE 11.5 mph 11.5 mph 26% 0.00 in
15:40 56.1 °F 23.4 °F 29.84 in NNW 4.6 mph 4.6 mph 28% 0.00 in
15:45 56.0 °F 23.3 °F 29.84 in NW 12.7 mph 12.7 mph 28% 0.00 in
15:50 56.5 °F 24.6 °F 29.83 in West 6.9 mph 6.9 mph 29% 0.00 in
15:55 57.1 °F 25.9 °F 29.84 in NW 11.5 mph 11.5 mph 30% 0.00 in
16:00 57.3 °F 26.1 °F 29.84 in North 10.4 mph 10.4 mph 30% 0.00 in
16:05 57.4 °F 24.5 °F 29.84 in NW 10.4 mph 10.4 mph 28% 0.00 in
16:10 57.4 °F 23.7 °F 29.84 in NNW 12.7 mph 12.7 mph 27% 0.00 in
16:15 57.0 °F 23.3 °F 29.84 in North 11.5 mph 11.5 mph 27% 0.00 in
16:21 56.6 °F 23.8 °F 29.84 in SSW 11.5 mph 11.5 mph 28% 0.00 in
16:26 55.8 °F 23.1 °F 29.84 in WSW 12.7 mph 12.7 mph 28% 0.00 in
16:31 55.7 °F 22.2 °F 29.84 in North 12.0 mph 12.0 mph 27% 0.00 in
16:36 55.8 °F 23.1 °F 29.84 in West 8.1 mph 8.1 mph 28% 0.00 in
16:41 55.9 °F 22.4 °F 29.84 in NW 6.9 mph 6.9 mph 27% 0.00 in
16:46 56.1 °F 20.7 °F 29.83 in North 4.6 mph 4.6 mph 25% 0.00 in
16:51 55.9 °F 19.6 °F 29.83 in NNW 10.4 mph 10.4 mph 24% 0.00 in
16:56 55.6 °F 19.3 °F 29.84 in North 7.0 mph 7.0 mph 24% 0.00 in
17:01 55.4 °F 21.0 °F 29.84 in NW 7.0 mph 7.0 mph 26% 0.00 in
17:06 55.2 °F 19.9 °F 29.84 in NNW 11.5 mph 11.5 mph 25% 0.00 in
17:11 55.0 °F 19.8 °F 29.85 in NW 5.8 mph 5.8 mph 25% 0.00 in
17:16 54.7 °F 21.3 °F 29.85 in North 11.5 mph 11.5 mph 27% 0.00 in
17:21 54.3 °F 21.0 °F 29.85 in North 9.2 mph 9.2 mph 27% 0.00 in
17:26 53.9 °F 20.6 °F 29.85 in WNW 6.9 mph 6.9 mph 27% 0.00 in
17:31 53.5 °F 21.2 °F 29.85 in NW 2.3 mph 2.3 mph 28% 0.00 in
17:36 53.2 °F 20.0 °F 29.86 in WNW 8.1 mph 8.1 mph 27% 0.00 in
17:41 53.1 °F 19.1 °F 29.86 in NW 5.8 mph 5.8 mph 26% 0.00 in
17:46 53.0 °F 19.0 °F 29.86 in WSW 4.6 mph 4.6 mph 26% 0.00 in
17:51 52.9 °F 20.6 °F 29.86 in NE 4.6 mph 4.6 mph 28% 0.00 in
17:56 52.7 °F 21.3 °F 29.86 in East 3.5 mph 3.5 mph 29% 0.00 in
18:01 52.6 °F 22.0 °F 29.86 in WSW 3.5 mph 3.5 mph 30% 0.00 in
18:06 52.5 °F 22.7 °F 29.86 in WSW 9.2 mph 9.2 mph 31% 0.00 in
18:11 52.4 °F 22.6 °F 29.86 in NNE 7.0 mph 7.0 mph 31% 0.00 in
18:16 52.3 °F 23.3 °F 29.86 in NNW 4.0 mph 4.0 mph 32% 0.00 in
18:21 52.2 °F 23.2 °F 29.86 in NW 3.5 mph 3.5 mph 32% 0.00 in
18:26 52.1 °F 23.8 °F 29.86 in NW 1.1 mph 1.1 mph 33% 0.00 in
18:31 52.0 °F 23.0 °F 29.85 in NW 3.5 mph 3.5 mph 32% 0.00 in
18:36 51.8 °F 23.6 °F 29.86 in NW 1.1 mph 1.1 mph 33% 0.00 in
18:41 51.7 °F 24.2 °F 29.86 in WNW 1.1 mph 1.1 mph 34% 0.00 in
18:46 51.4 °F 24.6 °F 29.86 in NNW 1.1 mph 1.1 mph 35% 0.00 in
18:51 51.3 °F 24.5 °F 29.86 in NW 3.5 mph 3.5 mph 35% 0.00 in
18:56 51.3 °F 25.2 °F 29.86 in North 3.5 mph 3.5 mph 36% 0.00 in
19:01 51.1 °F 25.7 °F 29.86 in NNW 1.1 mph 1.1 mph 37% 0.00 in
19:06 50.8 °F 25.4 °F 29.86 in NW 1.1 mph 1.1 mph 37% 0.00 in
19:11 50.6 °F 25.9 °F 29.86 in Calm   0.1 mph 38% 0.00 in
19:16 50.4 °F 26.3 °F 29.87 in Calm     39% 0.00 in
19:21 50.1 °F 26.7 °F 29.87 in Calm     40% 0.00 in
19:26 49.9 °F 27.1 °F 29.87 in Calm   0.4 mph 41% 0.00 in
19:32 49.8 °F 27.6 °F 29.87 in WNW 1.1 mph 1.1 mph 42% 0.00 in
19:37 49.7 °F 27.5 °F 29.87 in Calm     42% 0.00 in
19:42 49.5 °F 27.9 °F 29.88 in West 1.1 mph 1.1 mph 43% 0.00 in
19:47 49.2 °F 27.6 °F 29.88 in NE 3.5 mph 3.5 mph 43% 0.00 in
19:52 49.1 °F 27.0 °F 29.88 in NW 2.3 mph 2.3 mph 42% 0.00 in
19:57 48.8 °F 27.3 °F 29.88 in West 1.1 mph 1.1 mph 43% 0.00 in
20:02 48.7 °F 26.6 °F 29.88 in NW 4.0 mph 4.0 mph 42% 0.00 in
20:07 48.7 °F 26.0 °F 29.88 in West 3.5 mph 3.5 mph 41% 0.00 in
20:08 48.7 °F 25.4 °F 29.88 in West 2.3 mph 2.3 mph 40% 0.00 in
20:13 48.7 °F 25.4 °F 29.88 in NNE 3.5 mph 3.5 mph 40% 0.00 in
20:18 48.9 °F 25.0 °F 29.88 in NNE 1.1 mph 1.1 mph 39% 0.00 in
20:23 49.0 °F 24.5 °F 29.88 in WNW 2.3 mph 2.3 mph 38% 0.00 in
20:28 49.1 °F 24.6 °F 29.88 in NW 3.5 mph 3.5 mph 38% 0.00 in
20:33 49.1 °F 24.6 °F 29.88 in South 1.1 mph 1.1 mph 38% 0.00 in
20:38 49.0 °F 25.1 °F 29.88 in NW 1.1 mph   39% 0.00 in
20:43 48.9 °F 24.4 °F 29.88 in SW 2.3 mph 2.3 mph 38% 0.00 in
20:48 48.9 °F 24.4 °F 29.88 in West 2.3 mph 2.3 mph 38% 0.00 in
20:53 48.7 °F 24.2 °F 29.88 in NNW 1.1 mph 1.1 mph 38% 0.00 in
20:58 48.5 °F 24.0 °F 29.89 in NNE 1.1 mph 1.1 mph 38% 0.00 in
21:00 48.5 °F 24.0 °F 29.89 in Calm     38% 0.00 in
21:02 48.4 °F 24.6 °F 29.89 in ENE 1.1 mph   39% 0.00 in
21:07 48.1 °F 24.3 °F 29.89 in NE 1.0 mph   39% 0.00 in
21:12 47.8 °F 24.6 °F 29.89 in NW 1.1 mph   40% 0.00 in
21:17 47.5 °F 24.3 °F 29.89 in North 2.3 mph 2.3 mph 40% 0.00 in
21:22 47.4 °F 24.3 °F 29.89 in Calm     40% 0.00 in
21:27 47.4 °F 24.3 °F 29.89 in NNW 1.1 mph 1.1 mph 40% 0.00 in
21:32 47.4 °F 24.3 °F 29.89 in West 1.1 mph   40% 0.00 in
21:37 47.4 °F 24.3 °F 29.89 in Calm     40% 0.00 in
21:42 47.4 °F 24.3 °F 29.89 in West 1.1 mph 1.1 mph 40% 0.00 in
21:47 47.4 °F 24.3 °F 29.89 in Calm     40% 0.00 in
21:52 47.3 °F 24.2 °F 29.89 in NNW 2.3 mph 2.3 mph 40% 0.00 in
21:57 47.4 °F 23.7 °F 29.89 in West 2.3 mph 2.3 mph 39% 0.00 in
22:02 47.5 °F 23.7 °F 29.89 in West 2.3 mph 2.3 mph 39% 0.00 in
22:07 47.5 °F 23.1 °F 29.89 in West 3.5 mph 3.5 mph 38% 0.00 in
22:12 47.5 °F 23.1 °F 29.89 in West 2.3 mph 2.3 mph 38% 0.00 in
22:17 47.3 °F 23.6 °F 29.89 in WNW 1.1 mph 1.1 mph 39% 0.00 in
22:22 47.2 °F 23.5 °F 29.89 in WNW 1.1 mph 1.1 mph 39% 0.00 in
22:27 47.0 °F 23.3 °F 29.88 in WNW 2.3 mph 2.3 mph 39% 0.00 in
22:32 46.9 °F 22.6 °F 29.88 in WNW 2.3 mph 2.3 mph 38% 0.00 in
22:37 47.1 °F 22.8 °F 29.88 in WNW 3.5 mph 3.5 mph 38% 0.00 in
22:43 46.8 °F 23.1 °F 29.87 in SW 1.1 mph   39% 0.00 in
22:48 46.4 °F 23.4 °F 29.87 in SSW 1.1 mph 1.1 mph 40% 0.00 in
22:53 46.0 °F 23.6 °F 29.88 in South 1.1 mph 1.1 mph 41% 0.00 in
22:58 45.5 °F 23.7 °F 29.87 in SW 1.1 mph 1.1 mph 42% 0.00 in
23:03 45.1 °F 23.9 °F 29.87 in SW 1.1 mph   43% 0.00 in
23:08 44.7 °F 24.1 °F 29.87 in Calm     44% 0.00 in
23:13 44.3 °F 23.7 °F 29.87 in Calm     44% 0.00 in
23:18 44.0 °F 24.0 °F 29.87 in Calm     45% 0.00 in
23:23 43.6 °F 24.7 °F 29.88 in Calm     47% 0.00 in
23:28 43.2 °F 24.8 °F 29.88 in Calm     48% 0.00 in
23:33 42.8 °F 25.4 °F 29.88 in Calm     50% 0.00 in
23:38 42.3 °F 25.4 °F 29.88 in Calm     51% 0.00 in
23:43 41.9 °F 25.1 °F 29.88 in WSW 1.1 mph   51% 0.00 in
23:48 41.7 °F 25.4 °F 29.88 in Calm     52% 0.00 in
23:53 41.6 °F 25.7 °F 29.88 in Calm     53% 0.00 in
23:58 41.6 °F 25.3 °F 29.89 in Calm     52% 0.00 in
Compliments of Weather Underground